createdAt,value
2019-01-26T00:00:48.229Z,15.28
2019-01-26T00:01:52.353Z,14.73
2019-01-26T00:02:56.409Z,16.57
2019-01-26T00:04:00.607Z,15.95
2019-01-26T00:05:05.591Z,14.20
2019-01-26T00:06:09.869Z,17.15
2019-01-26T00:07:13.960Z,16.25
2019-01-26T00:08:17.965Z,15.98
2019-01-26T00:09:21.975Z,16.55
2019-01-26T00:10:26.052Z,16.90
2019-01-26T00:11:30.067Z,14.70
2019-01-26T00:12:34.107Z,13.60
2019-01-26T00:13:38.102Z,13.88
2019-01-26T00:14:42.114Z,14.93
2019-01-26T00:15:46.147Z,16.45
2019-01-26T00:16:50.213Z,15.38
2019-01-26T00:17:54.249Z,15.43
2019-01-26T00:18:58.095Z,15.08
2019-01-26T00:20:02.042Z,16.70
2019-01-26T00:21:06.031Z,15.20
2019-01-26T00:22:10.039Z,16.67
2019-01-26T00:23:14.055Z,17.82
2019-01-26T00:24:17.990Z,16.90
2019-01-26T00:25:21.989Z,17.02
2019-01-26T00:26:26.329Z,15.88
2019-01-26T00:27:30.253Z,17.25
2019-01-26T00:28:34.327Z,15.88
2019-01-26T00:29:38.339Z,15.05
2019-01-26T00:30:42.343Z,16.57
2019-01-26T00:31:46.695Z,14.15
2019-01-26T00:32:50.725Z,15.25
2019-01-26T00:33:55.021Z,14.95
2019-01-26T00:34:58.993Z,13.43
2019-01-26T00:36:02.995Z,15.05
2019-01-26T00:37:07.311Z,14.78
2019-01-26T00:38:11.636Z,14.40
2019-01-26T00:39:15.692Z,14.00
2019-01-26T00:40:19.699Z,15.72
2019-01-26T00:41:23.699Z,15.88
2019-01-26T00:42:28.154Z,14.60
2019-01-26T00:43:32.498Z,15.38
2019-01-26T00:44:36.434Z,15.35
2019-01-26T00:45:40.434Z,13.35
2019-01-26T00:46:44.434Z,13.45
2019-01-26T00:47:48.774Z,13.05
2019-01-26T00:48:52.781Z,12.25
2019-01-26T00:49:56.784Z,15.05
2019-01-26T00:51:00.791Z,13.65
2019-01-26T00:52:04.900Z,13.00
2019-01-26T00:53:08.845Z,15.03
2019-01-26T00:54:12.856Z,15.53
2019-01-26T00:55:17.107Z,15.25
2019-01-26T00:56:21.161Z,13.25
2019-01-26T00:57:25.172Z,13.38
2019-01-26T00:58:29.556Z,14.53
2019-01-26T00:59:33.775Z,14.03
2019-01-26T01:00:37.781Z,14.90
2019-01-26T01:01:41.793Z,12.55
2019-01-26T01:02:45.905Z,13.70
2019-01-26T01:03:49.921Z,13.68
2019-01-26T01:04:53.927Z,12.88
2019-01-26T01:05:58.197Z,12.58
2019-01-26T01:07:02.191Z,14.58
2019-01-26T01:08:06.387Z,11.55
2019-01-26T01:09:10.514Z,11.95
2019-01-26T01:10:15.228Z,13.60
2019-01-26T01:11:19.157Z,13.30
2019-01-26T01:12:23.336Z,13.62
2019-01-26T01:13:27.350Z,12.45
2019-01-26T01:14:31.281Z,13.60
2019-01-26T01:15:35.291Z,12.23
2019-01-26T01:16:39.297Z,12.28
2019-01-26T01:17:43.299Z,13.48
2019-01-26T01:18:47.361Z,13.48
2019-01-26T01:19:51.337Z,11.25
2019-01-26T01:20:55.447Z,12.15
2019-01-26T01:21:59.753Z,11.68
2019-01-26T01:23:03.746Z,12.25
2019-01-26T01:24:08.009Z,10.53
2019-01-26T01:25:12.560Z,11.93
2019-01-26T01:26:16.800Z,11.20
2019-01-26T01:27:20.799Z,11.10
2019-01-26T01:28:25.045Z,11.73
2019-01-26T01:29:29.072Z,13.13
2019-01-26T01:30:33.177Z,13.40
2019-01-26T01:31:37.340Z,10.65
2019-01-26T01:32:41.255Z,9.68
2019-01-26T01:33:45.250Z,9.83
2019-01-26T01:34:49.297Z,10.43
2019-01-26T01:35:53.577Z,11.00
2019-01-26T01:36:57.756Z,11.48
2019-01-26T01:38:02.002Z,12.23
2019-01-26T01:39:08.708Z,11.70
2019-01-26T01:40:13.208Z,12.30
2019-01-26T01:41:17.219Z,11.10
2019-01-26T01:42:21.221Z,11.43
2019-01-26T01:43:25.216Z,11.33
2019-01-26T01:44:29.230Z,10.72
2019-01-26T01:45:33.483Z,10.15
2019-01-26T01:46:42.919Z,10.80
2019-01-26T01:47:43.323Z,10.58
2019-01-26T01:48:47.489Z,10.13
2019-01-26T01:49:51.559Z,9.05
2019-01-26T01:50:55.561Z,10.43
2019-01-26T01:51:59.868Z,10.48
2019-01-26T01:53:03.963Z,10.08
2019-01-26T01:54:07.996Z,9.15
2019-01-26T01:55:12.893Z,9.70
2019-01-26T01:56:16.965Z,9.93
2019-01-26T01:57:20.936Z,8.18
2019-01-26T01:58:24.956Z,8.50
2019-01-26T01:59:28.872Z,8.75
2019-01-26T02:00:32.888Z,9.58
2019-01-26T02:01:36.817Z,9.93
2019-01-26T02:02:41.004Z,9.80
2019-01-26T02:03:44.931Z,10.05
2019-01-26T02:04:48.929Z,8.63
2019-01-26T02:05:52.858Z,9.28
2019-01-26T02:06:56.851Z,8.35
2019-01-26T02:08:00.780Z,9.28
2019-01-26T02:09:07.795Z,7.67
2019-01-26T02:10:13.433Z,7.90
2019-01-26T02:11:17.441Z,7.22
2019-01-26T02:12:21.446Z,7.72
2019-01-26T02:13:25.720Z,7.30
2019-01-26T02:14:29.790Z,6.55
2019-01-26T02:15:33.805Z,7.67
2019-01-26T02:16:37.811Z,6.75
2019-01-26T02:17:42.008Z,5.92
2019-01-26T02:18:45.930Z,7.53
2019-01-26T02:19:50.023Z,6.90
2019-01-26T02:20:54.041Z,6.75
2019-01-26T02:21:58.044Z,7.28
2019-01-26T02:23:02.049Z,7.53
2019-01-26T02:24:06.058Z,7.05
2019-01-26T02:25:10.157Z,6.60
2019-01-26T02:26:14.176Z,5.92
2019-01-26T02:27:18.181Z,7.42
2019-01-26T02:28:22.435Z,6.83
2019-01-26T02:29:26.455Z,6.92
2019-01-26T02:30:30.476Z,7.28
2019-01-26T02:31:34.482Z,6.53
2019-01-26T02:32:38.482Z,5.85
2019-01-26T02:33:42.893Z,5.78
2019-01-26T02:34:46.790Z,8.25
2019-01-26T02:35:50.873Z,5.75
2019-01-26T02:36:55.128Z,6.37
2019-01-26T02:37:59.118Z,6.95
2019-01-26T02:39:04.641Z,5.40
2019-01-26T02:40:10.369Z,5.50
2019-01-26T02:41:14.394Z,5.92
2019-01-26T02:42:18.355Z,6.22
2019-01-26T02:43:22.664Z,8.35
2019-01-26T02:44:26.833Z,5.15
2019-01-26T02:45:30.937Z,6.65
2019-01-26T02:46:34.877Z,6.22
2019-01-26T02:47:39.135Z,6.30
2019-01-26T02:48:43.382Z,6.65
2019-01-26T02:49:47.379Z,6.60
2019-01-26T02:50:51.320Z,5.80
2019-01-26T02:51:55.595Z,6.00
2019-01-26T02:52:59.901Z,5.90
2019-01-26T02:54:03.905Z,7.12
2019-01-26T02:55:08.020Z,6.10
2019-01-26T02:56:12.413Z,6.45
2019-01-26T02:57:16.427Z,6.08
2019-01-26T02:58:20.409Z,6.10
2019-01-26T02:59:24.730Z,6.42
2019-01-26T03:00:29.057Z,6.20
2019-01-26T03:01:33.081Z,6.28
2019-01-26T03:02:36.936Z,7.58
2019-01-26T03:03:41.140Z,6.55
2019-01-26T03:04:45.148Z,6.67
2019-01-26T03:05:49.075Z,7.20
2019-01-26T03:06:53.349Z,6.40
2019-01-26T03:07:57.472Z,6.58
2019-01-26T03:09:01.755Z,6.00
2019-01-26T03:10:07.302Z,6.95
2019-01-26T03:11:11.306Z,5.83
2019-01-26T03:12:15.320Z,6.85
2019-01-26T03:13:19.325Z,6.33
2019-01-26T03:14:23.251Z,5.97
2019-01-26T03:15:27.670Z,7.10
2019-01-26T03:16:31.928Z,6.33
2019-01-26T03:17:35.944Z,7.33
2019-01-26T03:18:40.181Z,6.37
2019-01-26T03:19:44.184Z,7.85
2019-01-26T03:20:48.197Z,7.15
2019-01-26T03:21:52.114Z,7.30
2019-01-26T03:22:56.127Z,8.48
2019-01-26T03:24:00.119Z,8.83
2019-01-26T03:25:05.096Z,7.87
2019-01-26T03:26:09.099Z,8.83
2019-01-26T03:27:13.112Z,7.20
2019-01-26T03:28:17.463Z,8.65
2019-01-26T03:29:21.462Z,7.78
2019-01-26T03:30:26.002Z,7.80
2019-01-26T03:31:29.994Z,9.03
2019-01-26T03:32:33.997Z,7.87
2019-01-26T03:33:38.240Z,8.50
2019-01-26T03:34:42.088Z,9.98
2019-01-26T03:35:46.342Z,8.20
2019-01-26T03:36:50.272Z,9.55
2019-01-26T03:37:54.201Z,9.95
2019-01-26T03:38:58.199Z,9.30
2019-01-26T03:40:02.445Z,9.68
2019-01-26T03:41:06.441Z,10.43
2019-01-26T03:42:10.433Z,9.80
2019-01-26T03:43:14.443Z,8.70
2019-01-26T03:44:18.665Z,14.80
2019-01-26T03:45:22.670Z,9.70
2019-01-26T03:46:26.665Z,10.85
2019-01-26T03:47:30.666Z,10.75
2019-01-26T03:48:34.683Z,11.05
2019-01-26T03:49:38.678Z,10.95
2019-01-26T03:50:42.692Z,10.32
2019-01-26T03:51:46.937Z,12.88
2019-01-26T03:52:50.883Z,12.68
2019-01-26T03:53:55.045Z,13.53
2019-01-26T03:54:59.162Z,12.25
2019-01-26T03:56:03.405Z,11.12
2019-01-26T03:57:07.650Z,11.03
2019-01-26T03:58:11.951Z,12.20
2019-01-26T03:59:15.941Z,14.03
2019-01-26T04:00:22.013Z,12.03
2019-01-26T04:01:26.003Z,10.90
2019-01-26T04:02:30.122Z,12.68
2019-01-26T04:03:34.136Z,13.58
2019-01-26T04:04:38.140Z,12.53
2019-01-26T04:05:42.137Z,12.37
2019-01-26T04:06:46.138Z,14.45
2019-01-26T04:07:50.138Z,12.63
2019-01-26T04:08:54.143Z,13.22
2019-01-26T04:09:58.135Z,13.85
2019-01-26T04:11:02.130Z,15.30
2019-01-26T04:12:06.126Z,13.68
2019-01-26T04:13:10.123Z,13.28
2019-01-26T04:14:14.127Z,15.25
2019-01-26T04:15:18.512Z,13.28
2019-01-26T04:16:23.008Z,13.05
2019-01-26T04:17:26.937Z,14.85
2019-01-26T04:18:30.860Z,13.72
2019-01-26T04:19:35.327Z,14.03
2019-01-26T04:20:39.489Z,12.82
2019-01-26T04:21:43.494Z,12.45
2019-01-26T04:22:47.495Z,12.55
2019-01-26T04:23:51.835Z,12.65
2019-01-26T04:24:55.853Z,11.35
2019-01-26T04:25:59.781Z,11.40
2019-01-26T04:27:03.785Z,11.97
2019-01-26T04:28:07.715Z,12.35
2019-01-26T04:29:11.744Z,11.48
2019-01-26T04:30:18.138Z,11.25
2019-01-26T04:31:22.430Z,12.55
2019-01-26T04:32:26.349Z,12.73
2019-01-26T04:33:30.289Z,10.85
2019-01-26T04:34:34.222Z,11.28
2019-01-26T04:35:38.230Z,11.33
2019-01-26T04:36:42.293Z,12.82
2019-01-26T04:37:46.309Z,11.97
2019-01-26T04:38:50.241Z,12.40
2019-01-26T04:39:54.635Z,11.45
2019-01-26T04:40:58.836Z,12.58
2019-01-26T04:42:03.066Z,10.98
2019-01-26T04:43:07.071Z,11.10
2019-01-26T04:44:12.998Z,9.78
2019-01-26T04:45:22.446Z,9.28
2019-01-26T04:46:27.142Z,11.75
2019-01-26T04:47:31.359Z,11.55
2019-01-26T04:48:35.269Z,10.60
2019-01-26T04:49:39.274Z,8.88
2019-01-26T04:50:43.273Z,9.93
2019-01-26T04:51:47.890Z,11.63
2019-01-26T04:52:51.873Z,9.98
2019-01-26T04:53:56.271Z,10.18
2019-01-26T04:55:00.296Z,9.23
2019-01-26T04:56:04.758Z,8.73
2019-01-26T04:57:08.690Z,11.10
2019-01-26T04:58:12.780Z,10.10
2019-01-26T04:59:16.796Z,9.43
2019-01-26T05:00:26.132Z,10.20
2019-01-26T05:01:30.129Z,10.32
2019-01-26T05:02:34.130Z,9.40
2019-01-26T05:03:38.208Z,10.28
2019-01-26T05:04:42.218Z,10.23
2019-01-26T05:05:46.225Z,9.15
2019-01-26T05:06:50.222Z,9.05
2019-01-26T05:07:54.299Z,10.15
2019-01-26T05:08:58.231Z,9.95
2019-01-26T05:10:02.234Z,7.78
2019-01-26T05:11:06.314Z,9.15
2019-01-26T05:12:10.317Z,7.90
2019-01-26T05:13:14.321Z,9.93
2019-01-26T05:14:18.316Z,8.05
2019-01-26T05:15:22.425Z,9.18
2019-01-26T05:16:26.465Z,10.58
2019-01-26T05:17:30.844Z,8.80
2019-01-26T05:18:34.767Z,7.40
2019-01-26T05:19:38.948Z,7.92
2019-01-26T05:20:42.966Z,9.98
2019-01-26T05:21:46.966Z,9.58
2019-01-26T05:22:51.078Z,9.35
2019-01-26T05:23:54.978Z,10.00
2019-01-26T05:24:59.353Z,10.68
2019-01-26T05:26:03.438Z,9.95
2019-01-26T05:27:07.436Z,8.73
2019-01-26T05:28:11.428Z,8.80
2019-01-26T05:29:15.776Z,8.48
2019-01-26T05:30:30.040Z,8.13
2019-01-26T05:31:34.045Z,9.03
2019-01-26T05:32:37.977Z,7.42
2019-01-26T05:33:42.329Z,7.97
2019-01-26T05:34:46.589Z,8.65
2019-01-26T05:35:50.784Z,7.85
2019-01-26T05:36:54.886Z,10.32
2019-01-26T05:37:59.147Z,9.00
2019-01-26T05:39:04.296Z,8.73
2019-01-26T05:40:11.221Z,9.50
2019-01-26T05:41:15.210Z,8.15
2019-01-26T05:42:19.128Z,6.75
2019-01-26T05:43:23.357Z,8.25
2019-01-26T05:44:27.360Z,9.58
2019-01-26T05:45:31.373Z,8.60
2019-01-26T05:46:35.362Z,9.33
2019-01-26T05:47:47.640Z,9.35
2019-01-26T05:48:44.989Z,8.03
2019-01-26T05:49:48.980Z,8.38
2019-01-26T05:50:52.986Z,9.08
2019-01-26T05:51:56.982Z,9.08
2019-01-26T05:53:00.971Z,8.78
2019-01-26T05:54:04.958Z,9.90
2019-01-26T05:55:09.186Z,8.78
2019-01-26T05:56:13.392Z,10.32
2019-01-26T05:57:17.316Z,7.70
2019-01-26T05:58:21.234Z,9.50
2019-01-26T05:59:25.219Z,8.98
2019-01-26T06:00:31.571Z,10.48
2019-01-26T06:01:35.574Z,8.70
2019-01-26T06:02:39.571Z,10.18
2019-01-26T06:03:43.563Z,9.98
2019-01-26T06:04:47.480Z,10.25
2019-01-26T06:05:51.420Z,12.70
2019-01-26T06:06:55.412Z,11.03
2019-01-26T06:07:59.499Z,9.95
2019-01-26T06:09:05.228Z,10.43
2019-01-26T06:10:09.537Z,9.68
2019-01-26T06:11:13.545Z,10.58
2019-01-26T06:12:17.540Z,9.98
2019-01-26T06:13:21.612Z,8.78
2019-01-26T06:14:25.770Z,9.98
2019-01-26T06:15:30.023Z,10.72
2019-01-26T06:16:34.255Z,11.08
2019-01-26T06:17:38.258Z,10.72
2019-01-26T06:18:42.260Z,11.48
2019-01-26T06:19:46.185Z,10.08
2019-01-26T06:20:50.361Z,10.85
2019-01-26T06:21:54.372Z,12.10
2019-01-26T06:22:58.369Z,10.90
2019-01-26T06:24:02.447Z,11.48
2019-01-26T06:25:06.937Z,11.63
2019-01-26T06:26:10.955Z,10.18
2019-01-26T06:27:14.951Z,11.83
2019-01-26T06:28:18.954Z,13.18
2019-01-26T06:29:22.961Z,12.95
2019-01-26T06:30:27.325Z,11.70
2019-01-26T06:31:31.571Z,12.35
2019-01-26T06:32:35.566Z,11.25
2019-01-26T06:33:39.556Z,11.63
2019-01-26T06:34:43.559Z,11.38
2019-01-26T06:35:47.594Z,28.40
2019-01-26T06:36:51.594Z,15.20
2019-01-26T06:37:55.874Z,14.03
2019-01-26T06:38:59.711Z,12.30
2019-01-26T06:40:03.805Z,12.07
2019-01-26T06:41:08.359Z,11.65
2019-01-26T06:42:12.537Z,11.05
2019-01-26T06:43:16.533Z,12.65
2019-01-26T06:44:20.532Z,12.30
2019-01-26T06:45:24.533Z,11.83
2019-01-26T06:46:28.528Z,13.75
2019-01-26T06:47:32.601Z,11.38
2019-01-26T06:48:36.592Z,12.23
2019-01-26T06:49:40.514Z,13.98
2019-01-26T06:50:44.746Z,11.95
2019-01-26T06:51:54.786Z,12.63
2019-01-26T06:52:58.812Z,11.10
2019-01-26T06:54:02.847Z,10.08
2019-01-26T06:55:08.228Z,12.28
2019-01-26T06:56:12.512Z,14.18
2019-01-26T06:57:16.821Z,14.18
2019-01-26T06:58:21.163Z,12.05
2019-01-26T06:59:25.184Z,11.75
2019-01-26T07:00:31.008Z,10.00
2019-01-26T07:01:34.942Z,14.03
2019-01-26T07:02:39.015Z,11.43
2019-01-26T07:03:43.054Z,13.15
2019-01-26T07:05:09.129Z,10.78
2019-01-26T07:06:26.483Z,12.65
2019-01-26T07:07:30.501Z,11.20
2019-01-26T07:08:34.432Z,12.98
2019-01-26T07:09:38.434Z,12.70
2019-01-26T07:10:42.455Z,11.80
2019-01-26T07:11:46.510Z,10.98
2019-01-26T07:12:50.544Z,13.53
2019-01-26T07:13:54.553Z,10.30
2019-01-26T07:14:58.480Z,10.75
2019-01-26T07:16:02.596Z,11.33
2019-01-26T07:17:06.595Z,11.90
2019-01-26T07:18:10.935Z,12.70
2019-01-26T07:19:14.932Z,10.40
2019-01-26T07:20:18.947Z,12.88
2019-01-26T07:21:22.953Z,14.28
2019-01-26T07:22:26.890Z,11.33
2019-01-26T07:23:30.850Z,9.53
2019-01-26T07:24:34.888Z,11.80
2019-01-26T07:25:38.824Z,11.75
2019-01-26T07:26:42.825Z,10.58
2019-01-26T07:27:47.142Z,9.90
2019-01-26T07:28:51.162Z,9.68
2019-01-26T07:29:55.445Z,11.57
2019-01-26T07:30:59.807Z,10.53
2019-01-26T07:32:04.033Z,11.60
2019-01-26T07:33:08.043Z,10.50
2019-01-26T07:34:13.444Z,11.95
2019-01-26T07:35:17.682Z,10.80
2019-01-26T07:36:22.126Z,10.75
2019-01-26T07:37:26.408Z,12.50
2019-01-26T07:38:32.386Z,10.28
2019-01-26T07:39:36.992Z,9.60
2019-01-26T07:40:40.928Z,11.93
2019-01-26T07:41:45.031Z,9.78
2019-01-26T07:42:49.039Z,12.37
2019-01-26T07:43:53.042Z,12.60
2019-01-26T07:44:57.001Z,11.40
2019-01-26T07:46:01.325Z,11.48
2019-01-26T07:47:05.575Z,12.93
2019-01-26T07:48:16.547Z,10.85
2019-01-26T07:49:15.586Z,12.03
2019-01-26T07:50:20.337Z,11.83
2019-01-26T07:51:24.853Z,13.00
2019-01-26T07:52:28.853Z,13.00
2019-01-26T07:53:33.160Z,11.93
2019-01-26T07:54:37.408Z,9.30
2019-01-26T07:55:41.408Z,10.40
2019-01-26T07:56:45.411Z,10.00
2019-01-26T07:57:49.654Z,11.93
2019-01-26T07:58:53.648Z,10.55
2019-01-26T07:59:58.199Z,11.18
2019-01-26T08:01:02.368Z,13.32
2019-01-26T08:02:06.365Z,10.25
2019-01-26T08:03:10.378Z,10.10
2019-01-26T08:04:14.389Z,10.28
2019-01-26T08:05:18.707Z,10.65
2019-01-26T08:06:22.712Z,9.68
2019-01-26T08:07:26.878Z,12.53
2019-01-26T08:08:31.780Z,11.08
2019-01-26T08:09:35.798Z,12.53
2019-01-26T08:10:40.043Z,13.10
2019-01-26T08:11:44.305Z,15.30
2019-01-26T08:12:48.578Z,15.25
2019-01-26T08:13:52.592Z,15.50
2019-01-26T08:14:56.609Z,16.50
2019-01-26T08:16:00.881Z,10.72
2019-01-26T08:17:05.213Z,13.45
2019-01-26T08:18:10.255Z,12.82
2019-01-26T08:19:14.655Z,12.40
2019-01-26T08:20:19.922Z,11.03
2019-01-26T08:21:23.950Z,9.75
2019-01-26T08:22:27.900Z,25.15
2019-01-26T08:23:32.485Z,14.50
2019-01-26T08:24:36.840Z,18.82
2019-01-26T08:25:40.875Z,18.32
2019-01-26T08:26:45.232Z,16.73
2019-01-26T08:27:49.254Z,19.77
2019-01-26T08:28:54.246Z,12.50
2019-01-26T08:29:58.567Z,10.30
2019-01-26T08:31:02.951Z,13.15
2019-01-26T08:32:07.299Z,10.45
2019-01-26T08:33:11.722Z,11.08
2019-01-26T08:34:15.977Z,11.70
2019-01-26T08:35:20.602Z,10.38
2019-01-26T08:36:24.780Z,14.80
2019-01-26T08:37:28.911Z,15.78
2019-01-26T08:38:33.221Z,12.03
2019-01-26T08:39:37.945Z,12.35
2019-01-26T08:40:42.350Z,10.13
2019-01-26T08:41:46.656Z,10.23
2019-01-26T08:42:50.805Z,10.13
2019-01-26T08:43:55.406Z,10.35
2019-01-26T08:45:00.299Z,10.15
2019-01-26T08:46:04.603Z,9.40
2019-01-26T08:47:09.427Z,10.05
2019-01-26T08:48:13.453Z,11.78
2019-01-26T08:49:17.694Z,9.58
2019-01-26T08:50:23.597Z,11.93
2019-01-26T08:51:27.643Z,10.08
2019-01-26T08:52:31.999Z,11.88
2019-01-26T08:53:36.395Z,11.73
2019-01-26T08:54:40.636Z,11.22
2019-01-26T08:55:45.237Z,11.10
2019-01-26T08:56:49.369Z,10.18
2019-01-26T08:57:53.690Z,15.20
2019-01-26T08:58:57.710Z,10.98
2019-01-26T09:00:01.935Z,14.90
2019-01-26T09:01:06.072Z,10.72
2019-01-26T09:02:31.865Z,9.55
2019-01-26T09:03:55.141Z,9.85
2019-01-26T09:04:59.347Z,9.10
2019-01-26T09:06:10.265Z,8.70
2019-01-26T09:07:14.406Z,11.95
2019-01-26T09:08:18.887Z,9.53
2019-01-26T09:09:22.915Z,9.43
2019-01-26T09:10:27.205Z,10.13
2019-01-26T09:11:31.346Z,10.72
2019-01-26T09:12:35.703Z,10.18
2019-01-26T09:13:40.237Z,9.95
2019-01-26T09:14:44.169Z,11.00
2019-01-26T09:15:48.350Z,10.28
2019-01-26T09:16:52.442Z,9.28
2019-01-26T09:17:56.468Z,9.93
2019-01-26T09:19:01.131Z,10.18
2019-01-26T09:20:07.672Z,8.38
2019-01-26T09:21:12.083Z,10.10
2019-01-26T09:22:17.181Z,9.13
2019-01-26T09:23:21.882Z,12.03
2019-01-26T09:24:26.696Z,15.43
2019-01-26T09:25:31.086Z,14.00
2019-01-26T09:26:35.927Z,8.88
2019-01-26T09:27:41.450Z,8.53
2019-01-26T09:28:46.503Z,7.47
2019-01-26T09:29:51.318Z,9.50
2019-01-26T09:30:56.681Z,11.08
2019-01-26T09:32:01.862Z,7.58
2019-01-26T09:33:06.552Z,7.35
2019-01-26T09:34:11.402Z,10.13
2019-01-26T09:35:15.757Z,11.20
2019-01-26T09:36:20.746Z,8.75
2019-01-26T09:37:26.011Z,8.75
2019-01-26T09:38:30.773Z,8.55
2019-01-26T09:39:35.609Z,7.80
2019-01-26T09:40:39.984Z,7.87
2019-01-26T09:41:44.244Z,7.12
2019-01-26T09:42:49.947Z,9.93
2019-01-26T09:43:54.750Z,12.18
2019-01-26T09:44:59.538Z,7.40
2019-01-26T09:46:04.446Z,6.83
2019-01-26T09:47:08.851Z,7.80
2019-01-26T09:48:13.398Z,8.70
2019-01-26T09:49:17.738Z,8.33
2019-01-26T09:50:21.980Z,7.05
2019-01-26T09:51:25.994Z,7.55
2019-01-26T09:52:30.042Z,7.95
2019-01-26T09:53:34.816Z,9.48
2019-01-26T09:54:39.519Z,7.28
2019-01-26T09:55:44.053Z,7.97
2019-01-26T09:56:49.032Z,7.92
2019-01-26T09:57:53.235Z,6.87
2019-01-26T09:58:58.020Z,11.65
2019-01-26T10:00:02.298Z,10.08
2019-01-26T10:01:07.548Z,10.93
2019-01-26T10:02:11.911Z,9.00
2019-01-26T10:03:16.457Z,6.37
2019-01-26T10:04:21.521Z,6.62
2019-01-26T10:05:25.876Z,8.03
2019-01-26T10:06:30.992Z,8.05
2019-01-26T10:07:37.295Z,8.65
2019-01-26T10:08:42.584Z,7.53
2019-01-26T10:09:47.310Z,10.50
2019-01-26T10:10:53.172Z,10.58
2019-01-26T10:11:57.972Z,8.18
2019-01-26T10:13:02.467Z,8.58
2019-01-26T10:14:07.331Z,7.25
2019-01-26T10:15:13.514Z,7.58
2019-01-26T10:16:18.001Z,8.10
2019-01-26T10:17:22.686Z,10.85
2019-01-26T10:18:27.705Z,9.28
2019-01-26T10:19:32.725Z,11.25
2019-01-26T10:20:38.139Z,7.87
2019-01-26T10:21:43.443Z,9.15
2019-01-26T10:22:49.179Z,6.95
2019-01-26T10:23:54.834Z,7.40
2019-01-26T10:25:00.041Z,11.43
2019-01-26T10:26:04.999Z,11.25
2019-01-26T10:27:09.448Z,7.65
2019-01-26T10:28:14.672Z,7.12
2019-01-26T10:29:20.462Z,7.92
2019-01-26T10:30:34.264Z,6.62
2019-01-26T10:31:39.363Z,6.42
2019-01-26T10:32:43.876Z,6.78
2019-01-26T10:33:48.313Z,8.28
2019-01-26T10:34:52.791Z,8.05
2019-01-26T10:36:16.381Z,6.50
2019-01-26T10:37:25.803Z,6.67
2019-01-26T10:38:30.973Z,6.25
2019-01-26T10:39:35.601Z,7.10
2019-01-26T10:40:59.292Z,6.22
2019-01-26T10:42:21.034Z,7.53
2019-01-26T10:43:26.408Z,7.28
2019-01-26T10:44:31.788Z,8.98
2019-01-26T10:45:36.815Z,8.38
2019-01-26T10:46:42.051Z,7.67
2019-01-26T10:47:47.390Z,7.00
2019-01-26T10:49:00.451Z,25.92
2019-01-26T10:50:00.479Z,9.05
2019-01-26T10:51:05.036Z,6.10
2019-01-26T10:52:09.919Z,7.72
2019-01-26T10:53:14.982Z,6.87
2019-01-26T10:54:19.667Z,7.15
2019-01-26T10:55:24.685Z,6.47
2019-01-26T10:56:30.439Z,5.65
2019-01-26T10:57:35.093Z,6.53
2019-01-26T10:58:39.974Z,6.45
2019-01-26T10:59:45.278Z,6.72
2019-01-26T11:00:51.553Z,6.53
2019-01-26T11:01:57.038Z,7.67
2019-01-26T11:03:02.267Z,8.68
2019-01-26T11:04:07.925Z,7.47
2019-01-26T11:05:14.372Z,9.78
2019-01-26T11:06:21.199Z,7.03
2019-01-26T11:07:28.298Z,8.45
2019-01-26T11:08:34.343Z,6.55
2019-01-26T11:09:43.074Z,7.92
2019-01-26T11:10:49.269Z,6.67
2019-01-26T11:11:55.142Z,7.47
2019-01-26T11:13:01.581Z,6.80
2019-01-26T11:14:07.630Z,7.10
2019-01-26T11:15:13.941Z,8.75
2019-01-26T11:16:20.952Z,5.70
2019-01-26T11:17:26.658Z,6.22
2019-01-26T11:18:32.840Z,5.10
2019-01-26T11:19:38.956Z,6.65
2019-01-26T11:20:44.852Z,5.62
2019-01-26T11:21:51.115Z,5.95
2019-01-26T11:22:57.475Z,5.80
2019-01-26T11:24:03.005Z,6.22
2019-01-26T11:25:10.113Z,6.90
2019-01-26T11:26:16.208Z,7.95
2019-01-26T11:27:21.623Z,6.08
2019-01-26T11:28:27.299Z,5.33
2019-01-26T11:29:32.214Z,6.97
2019-01-26T11:30:38.575Z,14.75
2019-01-26T11:31:45.067Z,7.00
2019-01-26T11:32:50.903Z,6.80
2019-01-26T11:33:58.760Z,6.90
2019-01-26T11:35:06.175Z,8.80
2019-01-26T11:36:12.127Z,6.42
2019-01-26T11:37:18.500Z,6.85
2019-01-26T11:38:24.756Z,13.00
2019-01-26T11:39:32.584Z,6.67
2019-01-26T11:40:39.451Z,6.00
2019-01-26T11:41:44.973Z,5.92
2019-01-26T11:42:51.254Z,7.40
2019-01-26T11:43:57.406Z,6.65
2019-01-26T11:45:23.475Z,8.55
2019-01-26T11:46:33.372Z,10.93
2019-01-26T11:47:40.268Z,6.83
2019-01-26T11:48:49.030Z,7.17
2019-01-26T11:49:59.231Z,6.25
2019-01-26T11:51:20.651Z,6.50
2019-01-26T11:52:27.185Z,5.72
2019-01-26T11:53:33.954Z,7.37
2019-01-26T11:55:02.751Z,6.20
2019-01-26T11:56:22.763Z,7.70
2019-01-26T11:57:31.808Z,7.83
2019-01-26T11:58:38.352Z,7.00
2019-01-26T11:59:46.473Z,5.78
2019-01-26T12:01:10.886Z,6.40
2019-01-26T12:02:30.006Z,6.62
2019-01-26T12:03:56.982Z,5.92
2019-01-26T12:05:25.100Z,8.23
2019-01-26T12:06:37.446Z,13.70
2019-01-26T12:07:43.550Z,14.58
2019-01-26T12:08:49.392Z,8.00
2019-01-26T12:09:55.739Z,6.17
2019-01-26T12:11:02.273Z,36.40
2019-01-26T12:12:09.111Z,14.90
2019-01-26T12:13:15.869Z,13.08
2019-01-26T12:14:22.559Z,10.35
2019-01-26T12:15:29.646Z,14.00
2019-01-26T12:16:36.029Z,20.68
2019-01-26T12:17:42.152Z,10.15
2019-01-26T12:18:48.422Z,10.88
2019-01-26T12:19:55.840Z,12.78
2019-01-26T12:21:02.193Z,6.42
2019-01-26T12:22:08.189Z,7.33
2019-01-26T12:23:15.654Z,6.97
2019-01-26T12:24:21.930Z,6.05
2019-01-26T12:25:28.296Z,10.70
2019-01-26T12:26:35.551Z,10.00
2019-01-26T12:27:42.051Z,6.90
2019-01-26T12:28:49.613Z,5.80
2019-01-26T12:29:56.157Z,5.47
2019-01-26T12:31:03.544Z,5.92
2019-01-26T12:32:10.019Z,10.13
2019-01-26T12:33:16.383Z,7.03
2019-01-26T12:34:22.594Z,5.72
2019-01-26T12:35:28.608Z,5.08
2019-01-26T12:36:35.248Z,5.30
2019-01-26T12:37:41.491Z,5.45
2019-01-26T12:38:48.039Z,5.70
2019-01-26T12:39:55.388Z,5.30
2019-01-26T12:41:01.733Z,6.30
2019-01-26T12:42:09.005Z,5.05
2019-01-26T12:43:17.277Z,5.17
2019-01-26T12:44:24.722Z,5.85
2019-01-26T12:45:31.163Z,5.12
2019-01-26T12:46:37.877Z,4.80
2019-01-26T12:47:44.789Z,5.92
2019-01-26T12:48:51.035Z,4.75
2019-01-26T12:49:58.143Z,4.03
2019-01-26T12:51:05.386Z,7.75
2019-01-26T12:52:12.052Z,6.83
2019-01-26T12:53:18.229Z,4.60
2019-01-26T12:54:25.092Z,5.72
2019-01-26T12:55:31.443Z,7.10
2019-01-26T12:56:37.748Z,6.45
2019-01-26T12:57:43.942Z,6.22
2019-01-26T12:58:51.125Z,5.40
2019-01-26T12:59:58.269Z,4.47
2019-01-26T13:01:06.039Z,5.03
2019-01-26T13:02:13.574Z,4.47
2019-01-26T13:03:21.262Z,5.37
2019-01-26T13:04:28.119Z,5.37
2019-01-26T13:05:34.900Z,5.00
2019-01-26T13:06:43.827Z,5.33
2019-01-26T13:07:51.070Z,5.78
2019-01-26T13:08:59.239Z,5.85
2019-01-26T13:10:09.310Z,6.22
2019-01-26T13:11:34.795Z,6.22
2019-01-26T13:12:41.548Z,7.40
2019-01-26T13:13:48.614Z,5.70
2019-01-26T13:14:55.523Z,6.08
2019-01-26T13:16:02.790Z,5.85
2019-01-26T13:17:10.280Z,4.85
2019-01-26T13:18:17.124Z,4.85
2019-01-26T13:19:25.103Z,5.50
2019-01-26T13:20:32.270Z,6.55
2019-01-26T13:21:39.153Z,7.03
2019-01-26T13:22:47.058Z,5.70
2019-01-26T13:23:54.107Z,6.42
2019-01-26T13:25:01.414Z,5.92
2019-01-26T13:26:08.633Z,4.25
2019-01-26T13:27:16.000Z,6.10
2019-01-26T13:28:24.213Z,6.83
2019-01-26T13:29:31.531Z,6.33
2019-01-26T13:30:38.159Z,6.08
2019-01-26T13:31:45.610Z,4.83
2019-01-26T13:32:52.917Z,7.83
2019-01-26T13:34:00.889Z,4.95
2019-01-26T13:35:08.474Z,9.58
2019-01-26T13:36:15.435Z,5.58
2019-01-26T13:37:23.129Z,4.33
2019-01-26T13:38:31.097Z,4.47
2019-01-26T13:39:38.681Z,4.70
2019-01-26T13:40:46.573Z,4.30
2019-01-26T13:41:54.808Z,4.92
2019-01-26T13:43:04.056Z,4.22
2019-01-26T13:44:14.928Z,4.85
2019-01-26T13:45:22.710Z,4.85
2019-01-26T13:46:31.016Z,4.97
2019-01-26T13:47:40.256Z,8.13
2019-01-26T13:48:49.464Z,4.95
2019-01-26T13:49:56.672Z,8.38
2019-01-26T13:51:04.358Z,7.47
2019-01-26T13:52:12.019Z,7.53
2019-01-26T13:53:20.177Z,6.72
2019-01-26T13:54:28.458Z,7.40
2019-01-26T13:55:36.496Z,7.47
2019-01-26T13:56:43.339Z,5.10
2019-01-26T13:57:51.472Z,8.03
2019-01-26T13:58:58.106Z,6.67
2019-01-26T14:00:05.370Z,5.65
2019-01-26T14:01:12.170Z,8.10
2019-01-26T14:02:19.314Z,5.97
2019-01-26T14:03:26.524Z,5.15
2019-01-26T14:04:33.846Z,5.33
2019-01-26T14:05:40.147Z,6.00
2019-01-26T14:06:46.558Z,6.47
2019-01-26T14:07:52.189Z,6.28
2019-01-26T14:08:58.995Z,5.85
2019-01-26T14:10:07.278Z,6.08
2019-01-26T14:11:14.702Z,8.80
2019-01-26T14:12:23.250Z,7.12
2019-01-26T14:13:30.834Z,6.60
2019-01-26T14:14:37.653Z,8.85
2019-01-26T14:15:44.980Z,7.22
2019-01-26T14:16:51.979Z,8.08